createdAt,value
2023-04-19T00:01:16.750Z,4.90
2023-04-19T00:03:43.350Z,4.90
2023-04-19T00:06:10.641Z,4.90
2023-04-19T00:08:37.089Z,4.78
2023-04-19T00:11:03.585Z,5.22
2023-04-19T00:13:30.238Z,4.78
2023-04-19T00:15:57.089Z,5.18
2023-04-19T00:18:23.564Z,5.07
2023-04-19T00:20:50.134Z,5.38
2023-04-19T00:23:16.820Z,5.57
2023-04-19T00:25:43.379Z,5.50
2023-04-19T00:28:09.781Z,6.07
2023-04-19T00:30:36.414Z,6.03
2023-04-19T00:33:03.524Z,6.38
2023-04-19T00:35:30.415Z,6.35
2023-04-19T00:37:57.164Z,6.18
2023-04-19T00:40:23.782Z,7.38
2023-04-19T00:42:50.632Z,6.45
2023-04-19T00:45:17.459Z,6.43
2023-04-19T00:47:43.984Z,6.72
2023-04-19T00:50:11.237Z,6.47
2023-04-19T00:52:37.676Z,6.07
2023-04-19T00:55:05.120Z,6.70
2023-04-19T00:57:31.632Z,6.18
2023-04-19T00:59:58.827Z,6.13
2023-04-19T01:02:25.840Z,6.63
2023-04-19T01:04:52.747Z,6.47
2023-04-19T01:07:19.957Z,5.90
2023-04-19T01:09:47.531Z,6.60
2023-04-19T01:12:14.185Z,6.60
2023-04-19T01:14:41.175Z,6.43
2023-04-19T01:17:08.375Z,6.40
2023-04-19T01:19:36.363Z,6.50
2023-04-19T01:22:04.411Z,5.78
2023-04-19T01:24:31.127Z,5.70
2023-04-19T01:26:57.738Z,5.32
2023-04-19T01:29:24.299Z,6.25
2023-04-19T01:31:53.579Z,5.82
2023-04-19T01:34:20.365Z,5.85
2023-04-19T01:36:47.143Z,5.72
2023-04-19T01:39:13.610Z,6.70
2023-04-19T01:41:40.726Z,6.75
2023-04-19T01:44:07.152Z,7.15
2023-04-19T01:46:33.802Z,6.47
2023-04-19T01:49:00.205Z,6.15
2023-04-19T01:51:26.604Z,6.05
2023-04-19T01:53:54.928Z,6.13
2023-04-19T01:56:24.224Z,6.35
2023-04-19T01:58:51.427Z,5.75
2023-04-19T02:01:17.864Z,6.15
2023-04-19T02:03:44.412Z,5.95
2023-04-19T02:06:12.767Z,6.53
2023-04-19T02:08:42.931Z,7.13
2023-04-19T02:11:11.575Z,6.03
2023-04-19T02:13:38.138Z,6.38
2023-04-19T02:16:05.901Z,6.50
2023-04-19T02:18:33.885Z,6.57
2023-04-19T02:21:00.603Z,6.80
2023-04-19T02:23:27.319Z,6.28
2023-04-19T02:25:54.178Z,6.90
2023-04-19T02:28:20.972Z,7.38
2023-04-19T02:30:47.508Z,6.15
2023-04-19T02:33:15.434Z,6.85
2023-04-19T02:35:42.061Z,6.13
2023-04-19T02:38:08.442Z,6.32
2023-04-19T02:40:35.367Z,6.97
2023-04-19T02:43:01.840Z,6.57
2023-04-19T02:45:28.751Z,6.78
2023-04-19T02:47:55.404Z,7.68
2023-04-19T02:50:22.064Z,7.18
2023-04-19T02:52:48.487Z,6.95
2023-04-19T02:55:15.034Z,6.68
2023-04-19T02:57:41.529Z,7.43
2023-04-19T03:00:09.022Z,7.82
2023-04-19T03:02:35.843Z,7.25
2023-04-19T03:05:02.744Z,7.43
2023-04-19T03:07:29.664Z,8.23
2023-04-19T03:09:56.084Z,7.50
2023-04-19T03:12:22.610Z,8.40
2023-04-19T03:14:49.418Z,8.13
2023-04-19T03:17:16.538Z,7.70
2023-04-19T03:19:42.947Z,7.45
2023-04-19T03:22:09.535Z,8.05
2023-04-19T03:24:37.941Z,8.00
2023-04-19T03:27:04.732Z,7.50
2023-04-19T03:29:31.636Z,7.50
2023-04-19T03:31:58.054Z,7.70
2023-04-19T03:34:24.868Z,7.28
2023-04-19T03:36:51.861Z,7.50
2023-04-19T03:39:18.394Z,7.20
2023-04-19T03:41:45.206Z,7.00
2023-04-19T03:44:11.666Z,7.40
2023-04-19T03:46:38.673Z,7.05
2023-04-19T03:49:05.161Z,7.03
2023-04-19T03:51:32.074Z,7.25
2023-04-19T03:53:58.521Z,7.32
2023-04-19T03:56:24.928Z,7.43
2023-04-19T03:58:52.620Z,7.82
2023-04-19T04:01:22.662Z,6.85
2023-04-19T04:03:49.653Z,7.70
2023-04-19T04:06:16.350Z,7.13
2023-04-19T04:08:43.150Z,7.55
2023-04-19T04:11:09.617Z,6.90
2023-04-19T04:13:36.636Z,7.22
2023-04-19T04:16:03.735Z,7.20
2023-04-19T04:18:31.269Z,7.75
2023-04-19T04:20:57.624Z,8.38
2023-04-19T04:23:25.742Z,8.32
2023-04-19T04:26:03.005Z,8.30
2023-04-19T04:28:29.488Z,8.48
2023-04-19T04:30:57.565Z,8.18
2023-04-19T04:33:29.691Z,8.35
2023-04-19T04:35:57.782Z,7.90
2023-04-19T04:38:25.344Z,8.25
2023-04-19T04:40:57.817Z,8.02
2023-04-19T04:43:26.040Z,9.32
2023-04-19T04:45:56.846Z,8.20
2023-04-19T04:48:23.812Z,8.38
2023-04-19T04:50:50.329Z,8.30
2023-04-19T04:53:16.833Z,9.43
2023-04-19T04:55:43.903Z,8.68
2023-04-19T04:58:10.617Z,9.00
2023-04-19T05:00:37.628Z,8.95
2023-04-19T05:03:04.199Z,9.40
2023-04-19T05:05:31.364Z,9.27
2023-04-19T05:07:57.844Z,10.23
2023-04-19T05:10:24.373Z,8.73
2023-04-19T05:12:50.783Z,11.00
2023-04-19T05:15:17.348Z,8.95
2023-04-19T05:17:43.781Z,9.13
2023-04-19T05:20:10.984Z,9.40
2023-04-19T05:22:37.779Z,9.07
2023-04-19T05:25:04.935Z,8.43
2023-04-19T05:27:31.472Z,8.65
2023-04-19T05:29:58.378Z,8.57
2023-04-19T05:32:24.940Z,9.00
2023-04-19T05:34:51.849Z,9.43
2023-04-19T05:37:18.256Z,9.20
2023-04-19T05:39:45.019Z,8.27
2023-04-19T05:42:11.730Z,7.80
2023-04-19T05:44:38.262Z,8.07
2023-04-19T05:47:04.670Z,9.02
2023-04-19T05:49:31.861Z,8.48
2023-04-19T05:51:58.740Z,10.93
2023-04-19T05:54:25.267Z,8.63
2023-04-19T05:56:51.819Z,7.78
2023-04-19T05:59:18.233Z,8.48
2023-04-19T06:01:44.863Z,9.23
2023-04-19T06:04:11.884Z,9.00
2023-04-19T06:06:38.401Z,9.48
2023-04-19T06:09:05.056Z,10.30
2023-04-19T06:11:38.882Z,10.15
2023-04-19T06:14:10.846Z,9.98
2023-04-19T06:16:37.406Z,8.68
2023-04-19T06:19:04.249Z,7.43
2023-04-19T06:21:31.692Z,9.57
2023-04-19T06:23:59.128Z,8.90
2023-04-19T06:26:26.394Z,8.55
2023-04-19T06:28:52.856Z,7.68
2023-04-19T06:31:19.914Z,8.43
2023-04-19T06:33:46.824Z,7.20
2023-04-19T06:36:13.343Z,7.55
2023-04-19T06:38:41.324Z,7.03
2023-04-19T06:41:09.127Z,7.22
2023-04-19T06:43:35.708Z,7.63
2023-04-19T06:46:04.547Z,7.05
2023-04-19T06:48:31.567Z,7.50
2023-04-19T06:50:58.558Z,6.85
2023-04-19T06:53:25.020Z,7.15
2023-04-19T06:56:01.660Z,7.53
2023-04-19T06:58:28.495Z,7.43
2023-04-19T07:00:55.359Z,7.40
2023-04-19T07:03:22.493Z,7.18
2023-04-19T07:05:49.980Z,7.13
2023-04-19T07:08:16.662Z,6.75
2023-04-19T07:10:44.234Z,7.95
2023-04-19T07:13:11.812Z,7.32
2023-04-19T07:15:39.540Z,6.50
2023-04-19T07:18:06.106Z,6.63
2023-04-19T07:20:33.016Z,5.85
2023-04-19T07:22:59.993Z,6.63
2023-04-19T07:25:27.320Z,7.07
2023-04-19T07:27:55.827Z,6.30
2023-04-19T07:30:22.422Z,5.68
2023-04-19T07:32:51.600Z,5.85
2023-04-19T07:35:19.403Z,6.63
2023-04-19T07:37:46.300Z,6.00
2023-04-19T07:40:13.121Z,6.57
2023-04-19T07:42:39.827Z,6.38
2023-04-19T07:45:07.063Z,5.85
2023-04-19T07:47:33.748Z,6.30
2023-04-19T07:50:00.309Z,5.57
2023-04-19T07:52:26.744Z,5.55
2023-04-19T07:54:53.579Z,5.60
2023-04-19T07:57:20.133Z,6.07
2023-04-19T07:59:46.701Z,5.68
2023-04-19T08:02:13.616Z,6.22
2023-04-19T08:04:40.388Z,10.13
2023-04-19T08:07:09.379Z,5.25
2023-04-19T08:09:37.714Z,6.50
2023-04-19T08:12:04.416Z,5.25
2023-04-19T08:14:38.034Z,5.55
2023-04-19T08:17:24.266Z,4.95
2023-04-19T08:19:53.146Z,4.93
2023-04-19T08:22:21.110Z,5.50
2023-04-19T08:24:50.118Z,5.47
2023-04-19T08:27:16.880Z,4.97
2023-04-19T08:29:43.346Z,5.10
2023-04-19T08:32:12.341Z,5.10
2023-04-19T08:34:40.270Z,5.60
2023-04-19T08:37:07.741Z,5.43
2023-04-19T08:39:35.478Z,5.47
2023-04-19T08:42:13.169Z,5.35
2023-04-19T08:45:06.401Z,5.50
2023-04-19T08:47:51.801Z,5.13
2023-04-19T08:53:12.100Z,5.07
2023-04-19T08:56:06.982Z,5.30
2023-04-19T08:58:50.350Z,4.93
2023-04-19T09:01:34.669Z,5.35
2023-04-19T09:04:26.454Z,5.03
2023-04-19T09:06:51.881Z,5.20
2023-04-19T09:11:53.642Z,4.90
2023-04-19T09:14:22.306Z,4.53
2023-04-19T09:16:48.895Z,5.15
2023-04-19T09:19:23.967Z,4.90
2023-04-19T09:21:53.580Z,4.53
2023-04-19T09:25:04.453Z,4.20
2023-04-19T09:27:32.138Z,4.43
2023-04-19T09:30:00.728Z,4.53
2023-04-19T09:32:28.303Z,4.63
2023-04-19T09:34:59.796Z,4.10
2023-04-19T09:39:56.883Z,3.97
2023-04-19T09:42:42.358Z,4.00
2023-04-19T09:47:40.568Z,3.95
2023-04-19T09:50:21.929Z,3.88
2023-04-19T09:52:52.791Z,3.40
2023-04-19T09:57:49.669Z,3.05
2023-04-19T10:00:16.995Z,4.20
2023-04-19T10:02:45.263Z,3.40
2023-04-19T10:05:20.622Z,3.50
2023-04-19T10:07:49.662Z,3.20
2023-04-19T10:10:30.156Z,3.80
2023-04-19T10:13:21.435Z,3.15
2023-04-19T10:15:54.036Z,3.38
2023-04-19T10:18:27.059Z,3.35
2023-04-19T10:21:02.119Z,3.58
2023-04-19T10:23:29.213Z,3.88
2023-04-19T10:26:00.406Z,2.85
2023-04-19T10:28:30.909Z,2.72
2023-04-19T10:31:03.467Z,2.65
2023-04-19T10:33:34.681Z,2.30
2023-04-19T10:36:02.250Z,3.00
2023-04-19T10:38:51.834Z,3.17
2023-04-19T10:41:19.646Z,3.15
2023-04-19T10:43:48.650Z,3.25
2023-04-19T10:46:21.689Z,2.95
2023-04-19T10:48:55.083Z,3.15
2023-04-19T10:51:44.604Z,2.70
2023-04-19T10:54:34.570Z,2.63
2023-04-19T10:57:11.376Z,2.95
2023-04-19T10:59:40.427Z,2.65
2023-04-19T11:02:22.195Z,2.28
2023-04-19T11:04:48.856Z,2.35
2023-04-19T11:07:15.599Z,2.00
2023-04-19T11:09:46.038Z,2.50
2023-04-19T11:12:20.528Z,2.47
2023-04-19T11:14:49.259Z,2.20
2023-04-19T11:17:19.072Z,1.85
2023-04-19T11:20:07.087Z,2.42
2023-04-19T11:22:33.952Z,2.60
2023-04-19T11:25:07.174Z,2.55
2023-04-19T11:27:34.750Z,2.20
2023-04-19T11:30:06.579Z,2.38
2023-04-19T11:32:33.587Z,2.38
2023-04-19T11:35:08.831Z,2.72
2023-04-19T11:37:36.689Z,2.20
2023-04-19T11:40:05.608Z,2.03
2023-04-19T11:42:32.749Z,2.45
2023-04-19T11:44:59.991Z,2.60
2023-04-19T11:47:27.424Z,3.20
2023-04-19T11:49:57.297Z,2.22
2023-04-19T11:52:25.641Z,2.15
2023-04-19T11:54:55.603Z,2.17
2023-04-19T11:57:31.527Z,2.97
2023-04-19T12:00:12.116Z,2.10
2023-04-19T12:02:41.539Z,2.95
2023-04-19T12:05:17.083Z,3.05
2023-04-19T12:08:04.330Z,2.90
2023-04-19T12:10:34.482Z,2.50
2023-04-19T12:13:01.069Z,2.75
2023-04-19T12:15:44.149Z,2.15
2023-04-19T12:18:10.869Z,2.42
2023-04-19T12:20:38.967Z,2.08
2023-04-19T12:23:07.553Z,2.65
2023-04-19T12:25:34.771Z,2.15
2023-04-19T12:28:03.917Z,2.05
2023-04-19T12:30:30.998Z,1.90
2023-04-19T12:32:58.909Z,1.88
2023-04-19T12:35:29.874Z,1.70
2023-04-19T12:37:59.130Z,1.73
2023-04-19T12:40:26.557Z,1.65
2023-04-19T12:42:53.858Z,1.55
2023-04-19T12:45:20.899Z,1.30
2023-04-19T12:47:48.493Z,1.73
2023-04-19T12:50:16.016Z,1.25
2023-04-19T12:52:49.412Z,1.40
2023-04-19T12:55:16.294Z,1.80
2023-04-19T12:57:43.125Z,1.58
2023-04-19T13:00:11.165Z,1.13
2023-04-19T13:02:38.419Z,1.30
2023-04-19T13:05:05.625Z,1.35
2023-04-19T13:07:32.914Z,1.40
2023-04-19T13:09:59.342Z,1.73
2023-04-19T13:12:26.402Z,1.45
2023-04-19T13:14:52.903Z,1.70
2023-04-19T13:17:20.829Z,1.40
2023-04-19T13:19:47.483Z,1.50
2023-04-19T13:22:14.641Z,1.52
2023-04-19T13:24:41.082Z,1.40
2023-04-19T13:27:09.113Z,1.58
2023-04-19T13:29:36.066Z,1.20
2023-04-19T13:32:02.621Z,1.60
2023-04-19T13:34:29.693Z,1.20
2023-04-19T13:36:57.567Z,1.50
2023-04-19T13:39:24.710Z,1.50
2023-04-19T13:41:51.860Z,1.58
2023-04-19T13:44:18.517Z,1.45
2023-04-19T13:46:45.390Z,1.48
2023-04-19T13:49:12.012Z,1.35
2023-04-19T13:51:46.913Z,1.45
2023-04-19T13:54:20.207Z,1.30
2023-04-19T13:56:51.343Z,1.65
2023-04-19T13:59:18.632Z,1.50
2023-04-19T14:01:45.597Z,1.42
2023-04-19T14:04:12.219Z,1.70
2023-04-19T14:06:39.016Z,1.60
2023-04-19T14:09:05.444Z,1.50
2023-04-19T14:11:32.455Z,1.65
2023-04-19T14:14:00.569Z,1.50
2023-04-19T14:16:27.131Z,1.42
2023-04-19T14:18:53.959Z,1.50
2023-04-19T14:21:20.416Z,1.65
2023-04-19T14:23:46.976Z,2.08
2023-04-19T14:26:15.545Z,1.77
2023-04-19T14:28:42.094Z,1.98
2023-04-19T14:31:08.536Z,1.67
2023-04-19T14:33:35.245Z,2.13
2023-04-19T14:36:02.008Z,1.90
2023-04-19T14:38:28.575Z,1.77
2023-04-19T14:40:55.268Z,1.92
2023-04-19T14:43:22.380Z,2.20
2023-04-19T14:45:49.900Z,2.55
2023-04-19T14:48:16.566Z,2.25
2023-04-19T14:50:43.542Z,2.30
2023-04-19T14:53:09.969Z,2.05
2023-04-19T14:55:39.687Z,2.63
2023-04-19T14:58:06.348Z,2.80
2023-04-19T15:00:33.155Z,2.78
2023-04-19T15:02:59.693Z,2.40
2023-04-19T15:05:29.976Z,2.38
2023-04-19T15:07:56.648Z,2.33
2023-04-19T15:10:23.126Z,2.38
2023-04-19T15:12:49.701Z,2.08
2023-04-19T15:15:16.818Z,2.42
2023-04-19T15:17:43.478Z,2.40
2023-04-19T15:20:10.279Z,2.53
2023-04-19T15:22:37.162Z,2.17
2023-04-19T15:25:04.083Z,2.38
2023-04-19T15:27:31.586Z,2.28
2023-04-19T15:29:57.972Z,2.05
2023-04-19T15:32:24.924Z,2.67
2023-04-19T15:34:51.496Z,2.55
2023-04-19T15:37:18.450Z,3.85
2023-04-19T15:39:44.854Z,2.40
2023-04-19T15:42:11.645Z,2.75
2023-04-19T15:44:38.260Z,2.42
2023-04-19T15:47:04.849Z,2.30
2023-04-19T15:49:31.524Z,2.50
2023-04-19T15:51:58.070Z,2.50
2023-04-19T15:54:24.508Z,2.15
2023-04-19T15:56:57.269Z,2.38
2023-04-19T15:59:23.661Z,2.38
2023-04-19T16:01:50.323Z,2.70
2023-04-19T16:04:16.932Z,2.20
2023-04-19T16:06:43.500Z,2.53
2023-04-19T16:09:10.402Z,2.10
2023-04-19T16:11:36.852Z,1.92
2023-04-19T16:14:03.715Z,3.67
2023-04-19T16:16:33.007Z,2.63
2023-04-19T16:19:00.064Z,2.20
2023-04-19T16:21:29.387Z,2.38
2023-04-19T16:23:56.336Z,3.00
2023-04-19T16:26:23.080Z,2.40
2023-04-19T16:28:49.635Z,2.53
2023-04-19T16:31:16.060Z,2.60
2023-04-19T16:33:42.612Z,2.80
2023-04-19T16:36:09.404Z,2.22
2023-04-19T16:38:35.793Z,2.50
2023-04-19T16:41:05.659Z,2.45
2023-04-19T16:43:32.334Z,2.78
2023-04-19T16:45:58.874Z,2.20
2023-04-19T16:48:25.879Z,2.38
2023-04-19T16:50:52.799Z,2.55
2023-04-19T16:53:19.641Z,2.30
2023-04-19T16:55:46.105Z,2.45
2023-04-19T16:58:12.669Z,2.35
2023-04-19T17:00:39.154Z,2.28
2023-04-19T17:03:09.761Z,2.00
2023-04-19T17:05:36.354Z,2.17
2023-04-19T17:08:03.334Z,2.17
2023-04-19T17:10:29.840Z,2.20
2023-04-19T17:12:56.906Z,2.10
2023-04-19T17:15:23.480Z,2.13
2023-04-19T17:17:50.446Z,2.10
2023-04-19T17:20:17.013Z,2.10
2023-04-19T17:22:43.686Z,1.85
2023-04-19T17:25:10.095Z,2.30
2023-04-19T17:27:36.726Z,2.08
2023-04-19T17:30:03.267Z,2.28
2023-04-19T17:32:29.901Z,2.63
2023-04-19T17:34:56.646Z,1.90
2023-04-19T17:37:23.074Z,2.40
2023-04-19T17:39:49.581Z,2.33
2023-04-19T17:42:16.102Z,2.50
2023-04-19T17:44:42.991Z,2.20
2023-04-19T17:47:09.434Z,2.20
2023-04-19T17:49:36.374Z,2.50
2023-04-19T17:52:03.242Z,2.30
2023-04-19T17:54:29.928Z,2.40
2023-04-19T17:56:59.166Z,2.30
2023-04-19T17:59:25.554Z,2.20
2023-04-19T18:01:52.344Z,2.20
2023-04-19T18:04:20.064Z,2.35
2023-04-19T18:06:47.765Z,3.08
2023-04-19T18:09:15.205Z,1.88
2023-04-19T18:11:42.102Z,2.20
2023-04-19T18:14:08.727Z,2.10
2023-04-19T18:16:35.714Z,2.42
2023-04-19T18:19:02.542Z,1.73
2023-04-19T18:21:28.977Z,2.25
2023-04-19T18:23:56.489Z,2.13
2023-04-19T18:26:23.378Z,2.28
2023-04-19T18:28:50.106Z,2.70
2023-04-19T18:31:16.609Z,2.13
2023-04-19T18:33:43.056Z,2.03
2023-04-19T18:36:09.723Z,2.30
2023-04-19T18:38:36.173Z,2.03
2023-04-19T18:41:02.836Z,2.08
2023-04-19T18:43:30.847Z,2.10
2023-04-19T18:45:57.905Z,2.10
2023-04-19T18:48:28.436Z,1.92
2023-04-19T18:50:55.178Z,2.00
2023-04-19T18:53:21.816Z,2.50
2023-04-19T18:55:48.508Z,1.95
2023-04-19T18:58:15.663Z,2.72
2023-04-19T19:00:42.548Z,2.33
2023-04-19T19:03:21.448Z,2.38
2023-04-19T19:05:55.886Z,2.03
2023-04-19T19:08:22.767Z,3.08
2023-04-19T19:11:13.729Z,2.45
2023-04-19T19:13:36.153Z,1.95
2023-04-19T19:16:02.696Z,2.25
2023-04-19T19:18:29.526Z,2.15
2023-04-19T19:21:00.194Z,2.00
2023-04-19T19:25:58.021Z,1.90
2023-04-19T19:28:24.814Z,2.22
2023-04-19T19:30:51.288Z,2.13
2023-04-19T19:33:18.583Z,2.20
2023-04-19T19:35:45.412Z,1.90
2023-04-19T19:38:12.020Z,2.30
2023-04-19T19:40:59.385Z,1.90
2023-04-19T19:43:24.840Z,2.20
2023-04-19T19:45:51.196Z,1.73
2023-04-19T19:48:17.819Z,2.10
2023-04-19T19:53:13.693Z,2.33
2023-04-19T19:55:40.506Z,2.70
2023-04-19T20:00:46.317Z,3.42
2023-04-19T20:03:14.199Z,5.07
2023-04-19T20:05:41.514Z,4.53
2023-04-19T20:08:10.570Z,8.23
2023-04-19T20:10:38.790Z,8.70
2023-04-19T20:13:08.740Z,5.32
2023-04-19T20:15:36.915Z,4.30
2023-04-19T20:18:04.349Z,10.88
2023-04-19T20:20:31.042Z,4.72
2023-04-19T20:22:57.596Z,2.55
2023-04-19T20:25:24.222Z,2.67
2023-04-19T20:27:50.654Z,2.30
2023-04-19T20:30:17.508Z,4.85
2023-04-19T20:32:44.062Z,3.20
2023-04-19T20:35:12.253Z,9.30
2023-04-19T20:37:42.445Z,9.40
2023-04-19T20:40:12.050Z,13.43
2023-04-19T20:42:38.539Z,12.50
2023-04-19T20:45:11.821Z,10.25
2023-04-19T20:47:38.810Z,9.63
2023-04-19T20:50:08.923Z,5.53
2023-04-19T20:52:35.617Z,4.03
2023-04-19T20:55:02.165Z,3.75
2023-04-19T20:57:29.189Z,4.07
2023-04-19T20:59:55.860Z,3.75
2023-04-19T21:02:22.392Z,4.53
2023-04-19T21:04:49.063Z,4.03
2023-04-19T21:07:15.530Z,3.50
2023-04-19T21:09:42.158Z,3.22
2023-04-19T21:12:08.649Z,3.28
2023-04-19T21:14:35.188Z,3.17
2023-04-19T21:17:03.483Z,3.10
2023-04-19T21:19:30.604Z,3.00
2023-04-19T21:21:58.900Z,2.78
2023-04-19T21:24:25.546Z,3.60
2023-04-19T21:26:52.298Z,2.95
2023-04-19T21:29:19.869Z,2.75
2023-04-19T21:31:48.166Z,2.60
2023-04-19T21:34:14.940Z,2.90
2023-04-19T21:36:41.850Z,2.80
2023-04-19T21:39:08.758Z,3.05
2023-04-19T21:41:35.644Z,3.47
2023-04-19T21:44:02.084Z,2.75
2023-04-19T21:46:42.953Z,3.20
2023-04-19T21:49:09.616Z,3.08
2023-04-19T21:51:36.066Z,3.05
2023-04-19T21:54:02.705Z,2.50
2023-04-19T21:56:29.077Z,2.90
2023-04-19T21:58:55.726Z,3.10
2023-04-19T22:01:22.164Z,2.78
2023-04-19T22:03:49.017Z,2.90
2023-04-19T22:06:17.256Z,3.08
2023-04-19T22:08:43.923Z,3.00
2023-04-19T22:11:12.039Z,2.47
2023-04-19T22:13:38.614Z,3.33
2023-04-19T22:16:05.548Z,3.10
2023-04-19T22:18:34.479Z,3.75
2023-04-19T22:21:01.348Z,3.60
2023-04-19T22:23:27.735Z,3.20
2023-04-19T22:25:54.148Z,3.40
2023-04-19T22:28:21.383Z,3.13
2023-04-19T22:30:47.872Z,3.17
2023-04-19T22:33:14.258Z,3.42
2023-04-19T22:35:40.769Z,3.47
2023-04-19T22:38:07.806Z,3.45
2023-04-19T22:40:34.199Z,3.00
2023-04-19T22:43:00.606Z,3.10
2023-04-19T22:45:27.174Z,2.83
2023-04-19T22:47:53.597Z,3.10
2023-04-19T22:50:20.582Z,3.13
2023-04-19T22:52:46.940Z,2.92
2023-04-19T22:55:13.349Z,2.80
2023-04-19T22:57:39.743Z,3.00
2023-04-19T23:00:06.979Z,2.97
2023-04-19T23:02:33.430Z,2.70
2023-04-19T23:05:00.924Z,2.90
2023-04-19T23:07:28.673Z,2.88
2023-04-19T23:09:56.403Z,2.65
2023-04-19T23:12:23.962Z,2.67
2023-04-19T23:14:50.527Z,3.28
2023-04-19T23:17:18.349Z,3.10
2023-04-19T23:19:44.762Z,3.00
2023-04-19T23:22:11.314Z,2.78
2023-04-19T23:24:37.684Z,2.78
2023-04-19T23:27:04.758Z,2.88
2023-04-19T23:29:31.228Z,2.90
2023-04-19T23:31:58.103Z,3.05
2023-04-19T23:34:24.771Z,3.20
2023-04-19T23:36:51.292Z,3.38
2023-04-19T23:39:18.028Z,3.33
2023-04-19T23:41:44.765Z,2.85
2023-04-19T23:44:11.480Z,2.78
2023-04-19T23:46:38.118Z,2.80
2023-04-19T23:49:04.505Z,3.08
2023-04-19T23:51:31.282Z,3.75
2023-04-19T23:53:57.621Z,3.08
2023-04-19T23:56:24.027Z,3.00
2023-04-19T23:58:50.381Z,3.40
